Time;durP1;ratioP1;P1;durP2;ratioP2;P2;SDS_P1;SDS_P2;PMS_P1;PMS_P2;Temp;Humidity;BMP_temperature;BMP_pressure;BME280_temperature;BME280_humidity;BME280_pressure;Samples;Min_cycle;Max_cycle;Signal;HPM_P1;HPM_P2
2024/03/18 00:00:16;;;;;;;3.80;2.30;;;;;;;2.93;79.57;99266.24;109474;1252;59766;-71
2024/03/18 00:03:02;;;;;;;3.90;2.70;;;;;;;2.90;78.95;99267.73;109456;1252;59896;-71
2024/03/18 00:05:29;;;;;;;3.80;2.60;;;;;;;2.87;79.17;99266.94;109498;1252;66529;-71
2024/03/18 00:07:55;;;;;;;3.20;2.30;;;;;;;2.85;79.28;99266.29;109255;1251;59807;-71
2024/03/18 00:10:22;;;;;;;4.50;2.50;;;;;;;2.85;79.23;99267.02;109484;1252;59983;-70
2024/03/18 00:12:48;;;;;;;4.80;2.30;;;;;;;2.82;79.15;99264.98;109526;1252;59847;-71
2024/03/18 00:15:15;;;;;;;2.90;2.00;;;;;;;2.81;79.14;99262.39;109434;1253;59845;-71
2024/03/18 00:17:43;;;;;;;1.90;1.40;;;;;;;2.81;79.36;99261.86;109482;1252;66675;-71
2024/03/18 00:20:11;;;;;;;3.00;1.70;;;;;;;2.81;79.41;99259.77;109512;1253;59863;-70
2024/03/18 00:22:42;;;;;;;2.60;1.90;;;;;;;2.80;79.22;99256.46;109277;1252;64043;-71
2024/03/18 00:25:12;;;;;;;2.10;1.50;;;;;;;2.79;79.41;99253.69;109473;1253;59862;-70
2024/03/18 00:27:39;;;;;;;;;;;;;;;2.78;79.48;99252.81;109534;1252;60028;-71
2024/03/18 00:30:10;;;;;;;3.20;1.90;;;;;;;2.78;79.55;99246.19;109508;1252;60123;-71
2024/03/18 00:32:39;;;;;;;4.00;1.70;;;;;;;2.77;79.53;99247.95;109291;1253;59886;-71
2024/03/18 00:35:09;;;;;;;4.10;1.70;;;;;;;2.75;79.38;99245.20;109492;1252;63679;-71
2024/03/18 00:37:39;;;;;;;2.30;2.00;;;;;;;2.74;79.63;99244.91;109224;1252;59880;-70
2024/03/18 00:40:06;;;;;;;3.10;1.90;;;;;;;2.71;79.56;99245.14;109492;1252;59971;-69
2024/03/18 00:42:32;;;;;;;3.00;2.20;;;;;;;2.68;79.93;99240.88;109200;1252;66908;-71
2024/03/18 00:45:00;;;;;;;6.10;2.50;;;;;;;2.67;80.31;99235.46;109491;1251;60055;-71
2024/03/18 00:47:26;;;;;;;3.50;2.00;;;;;;;2.66;80.49;99233.73;109491;1252;62862;-70
2024/03/18 00:49:54;;;;;;;3.70;2.20;;;;;;;2.65;80.48;99232.90;109386;1253;59945;-71
2024/03/18 00:52:20;;;;;;;3.10;2.20;;;;;;;2.63;80.78;99231.02;109275;1252;59935;-71
2024/03/18 00:54:48;;;;;;;4.10;2.20;;;;;;;2.63;80.93;99233.13;109516;1252;66550;-70
2024/03/18 00:57:14;;;;;;;3.80;2.30;;;;;;;2.62;80.97;99228.94;109517;1252;60136;-71
2024/03/18 00:59:40;;;;;;;3.60;2.50;;;;;;;2.61;80.83;99227.39;109455;1252;59920;-71
2024/03/18 01:02:06;;;;;;;3.40;2.70;;;;;;;2.61;80.89;99227.23;109524;1252;60006;-70
2024/03/18 01:04:33;;;;;;;3.50;2.60;;;;;;;2.60;81.16;99227.25;109513;1252;60605;-72
2024/03/18 01:07:01;;;;;;;3.80;2.70;;;;;;;2.59;80.95;99222.35;109456;1252;60118;-70
2024/03/18 01:09:28;;;;;;;3.40;2.60;;;;;;;2.58;80.74;99219.77;109492;1252;59835;-71
2024/03/18 01:11:54;;;;;;;3.80;2.10;;;;;;;2.57;80.77;99218.05;109514;1252;64402;-70
2024/03/18 01:14:21;;;;;;;3.40;2.10;;;;;;;2.55;80.72;99217.58;109492;1252;59825;-70
2024/03/18 01:16:47;;;;;;;3.30;2.20;;;;;;;2.54;80.76;99218.14;109532;1252;59796;-70
2024/03/18 01:19:15;;;;;;;3.30;2.50;;;;;;;2.53;80.66;99218.17;109528;1253;59743;-70
2024/03/18 01:21:41;;;;;;;3.10;1.90;;;;;;;2.52;80.79;99217.16;109512;1252;60134;-71
2024/03/18 01:24:07;;;;;;;3.90;2.40;;;;;;;2.50;80.85;99220.55;109511;1252;59892;-71
2024/03/18 01:26:33;;;;;;;2.80;2.00;;;;;;;2.49;81.01;99221.80;109435;1254;60088;-70
2024/03/18 01:29:00;;;;;;;2.60;1.80;;;;;;;2.48;80.96;99223.59;109558;1252;59966;-71
2024/03/18 01:31:27;;;;;;;2.00;1.80;;;;;;;2.47;81.03;99220.46;109500;1253;59834;-71
2024/03/18 01:33:54;;;;;;;4.30;2.10;;;;;;;2.46;81.25;99220.85;109499;1252;59741;-71
2024/03/18 01:36:20;;;;;;;3.00;1.50;;;;;;;2.45;81.02;99217.71;109465;1252;64923;-70
2024/03/18 01:38:46;;;;;;;1.90;1.80;;;;;;;2.43;80.79;99220.73;109511;1252;59754;-69
2024/03/18 01:41:12;;;;;;;2.00;1.80;;;;;;;2.42;80.76;99216.25;109508;1252;59880;-70
2024/03/18 01:43:39;;;;;;;3.10;1.90;;;;;;;2.40;80.79;99216.29;109556;1252;59743;-71
2024/03/18 01:46:17;;;;;;;2.20;1.70;;;;;;;2.39;81.14;99213.15;109508;1252;59788;-71
2024/03/18 01:48:46;;;;;;;1.80;1.70;;;;;;;2.38;81.18;99214.42;109452;1252;64413;-71
2024/03/18 01:51:13;;;;;;;3.90;1.80;;;;;;;2.37;81.37;99210.23;109481;1252;59858;-70
2024/03/18 01:53:41;;;;;;;2.60;1.90;;;;;;;2.36;81.43;99210.43;109501;1252;59741;-70
2024/03/18 01:56:09;;;;;;;1.90;1.70;;;;;;;2.35;81.63;99209.76;109507;1253;66901;-71
2024/03/18 01:58:38;;;;;;;3.60;1.90;;;;;;;2.36;81.83;99208.16;109531;1252;59842;-71
2024/03/18 02:01:06;;;;;;;4.50;2.30;;;;;;;2.37;82.10;99207.79;109415;1253;62656;-70
2024/03/18 02:03:33;;;;;;;3.00;2.70;;;;;;;2.38;82.20;99208.12;109492;1252;59755;-71
2024/03/18 02:06:00;;;;;;;4.60;2.00;;;;;;;2.38;82.19;99207.07;109505;1252;59672;-70
2024/03/18 02:08:27;;;;;;;3.80;2.20;;;;;;;2.37;82.17;99212.52;109524;1252;67074;-70
2024/03/18 02:10:54;;;;;;;3.40;2.20;;;;;;;2.37;82.33;99212.18;109517;1253;60578;-70
2024/03/18 02:13:20;;;;;;;2.50;2.10;;;;;;;2.36;82.48;99215.54;109521;1253;62795;-70
2024/03/18 02:15:46;;;;;;;4.00;2.20;;;;;;;2.35;82.64;99214.35;109511;1253;59786;-71
2024/03/18 02:18:13;;;;;;;3.00;2.30;;;;;;;2.34;83.06;99214.37;109501;1252;59816;-71
2024/03/18 02:20:39;;;;;;;3.00;2.20;;;;;;;2.34;83.16;99216.30;109210;1253;60656;-71
2024/03/18 02:23:06;;;;;;;5.40;2.90;;;;;;;2.34;83.24;99208.41;109573;1253;60287;-71
2024/03/18 02:25:32;;;;;;;4.80;2.60;;;;;;;2.35;83.36;99203.48;109495;1252;59809;-71
2024/03/18 02:27:58;;;;;;;3.40;2.70;;;;;;;2.34;83.41;99203.16;109482;1252;59762;-70
2024/03/18 02:30:25;;;;;;;5.00;2.50;;;;;;;2.33;83.60;99196.16;109577;1252;60034;-70
2024/03/18 02:32:51;;;;;;;4.80;2.90;;;;;;;2.34;83.69;99197.90;109515;1252;60239;-71
2024/03/18 02:35:17;;;;;;;5.80;3.80;;;;;;;2.32;83.85;99199.70;109546;1252;59847;-71
2024/03/18 02:37:44;;;;;;;6.40;3.50;;;;;;;2.30;84.03;99196.08;109526;1253;59810;-71
2024/03/18 02:40:12;;;;;;;5.20;3.10;;;;;;;2.30;84.18;99199.74;109537;1252;59934;-72
2024/03/18 02:42:40;;;;;;;6.40;3.60;;;;;;;2.30;84.37;99198.36;109486;1253;60185;-70
2024/03/18 02:45:09;;;;;;;4.30;3.00;;;;;;;2.30;84.47;99199.96;109498;1252;66730;-70
2024/03/18 02:47:37;;;;;;;3.70;2.80;;;;;;;2.30;84.74;99198.55;109459;1253;60130;-70
2024/03/18 02:50:07;;;;;;;3.50;2.70;;;;;;;2.30;84.96;99196.80;109524;1252;63945;-70
2024/03/18 02:52:37;;;;;;;3.60;2.90;;;;;;;2.29;85.13;99198.75;109519;1252;59741;-70
2024/03/18 02:55:04;;;;;;;6.10;2.60;;;;;;;2.28;85.29;99196.85;109521;1253;59839;-70
2024/03/18 02:57:31;;;;;;;2.90;2.50;;;;;;;2.26;85.37;99199.02;109533;1253;65728;-70
2024/03/18 02:59:57;;;;;;;3.20;2.50;;;;;;;2.23;85.36;99197.16;109525;1252;59748;-70
2024/03/18 03:02:23;;;;;;;5.40;3.60;;;;;;;2.20;85.31;99195.31;109445;1253;59758;-70
2024/03/18 03:04:50;;;;;;;3.60;3.00;;;;;;;2.17;85.39;99195.05;109504;1253;60168;-69
2024/03/18 03:07:16;;;;;;;5.00;2.20;;;;;;;2.15;85.46;99197.23;109565;1253;59785;-69
2024/03/18 03:09:43;;;;;;;3.60;2.60;;;;;;;2.13;85.52;99194.30;109498;1252;59824;-71
2024/03/18 03:12:09;;;;;;;5.20;2.80;;;;;;;2.11;85.61;99189.96;109534;1252;59773;-70
2024/03/18 03:14:35;;;;;;;4.00;2.90;;;;;;;2.10;85.86;99188.41;109471;1252;59840;-70
2024/03/18 03:17:02;;;;;;;4.10;2.80;;;;;;;2.11;85.94;99188.77;109518;1252;59756;-70
2024/03/18 03:19:28;;;;;;;5.20;3.10;;;;;;;2.09;85.85;99188.64;109522;1253;59758;-70
2024/03/18 03:21:55;;;;;;;4.60;2.70;;;;;;;2.06;85.91;99188.55;109532;1253;59928;-71
2024/03/18 03:24:21;;;;;;;3.40;2.50;;;;;;;2.04;85.93;99189.66;108029;1253;1002959;-70
2024/03/18 03:26:47;;;;;;;3.20;2.60;;;;;;;2.01;85.93;99189.58;109468;1252;59866;-70
2024/03/18 03:29:14;;;;;;;4.10;2.90;;;;;;;1.99;86.20;99190.17;109527;1253;59830;-70
2024/03/18 03:31:42;;;;;;;3.40;3.10;;;;;;;1.97;86.18;99193.73;109584;1251;59927;-70
2024/03/18 03:34:08;;;;;;;3.70;2.90;;;;;;;1.95;86.33;99186.42;109508;1252;66779;-71
2024/03/18 03:36:39;;;;;;;5.40;3.30;;;;;;;1.94;86.55;99185.91;109259;1252;60264;-71
2024/03/18 03:39:05;;;;;;;6.10;3.80;;;;;;;1.95;86.85;99186.59;109509;1253;65555;-70
2024/03/18 03:41:31;;;;;;;5.40;4.20;;;;;;;1.95;86.96;99185.71;109499;1252;59824;-70
2024/03/18 03:43:58;;;;;;;5.20;4.60;;;;;;;1.94;87.14;99189.58;109544;1253;60047;-70
2024/03/18 03:46:24;;;;;;;8.20;6.40;;;;;;;1.93;87.32;99189.61;109541;1253;59758;-71
2024/03/18 03:48:50;;;;;;;7.70;6.80;;;;;;;1.91;87.60;99188.65;109487;1253;60154;-70
2024/03/18 03:51:16;;;;;;;6.60;6.00;;;;;;;1.88;88.19;99194.52;109491;1252;59821;-70
2024/03/18 03:53:43;;;;;;;7.90;5.40;;;;;;;1.82;89.96;99197.47;109437;1252;59779;-70
2024/03/18 03:56:09;;;;;;;6.90;6.20;;;;;;;1.77;92.02;99200.79;109514;1253;59816;-70
2024/03/18 03:58:36;;;;;;;7.80;6.80;;;;;;;1.68;95.03;99204.34;109496;1253;59898;-71
2024/03/18 04:01:02;;;;;;;6.80;6.10;;;;;;;1.61;96.34;99210.65;109232;1253;59945;-71
2024/03/18 04:03:28;;;;;;;7.40;6.70;;;;;;;1.52;97.91;99211.61;109497;1253;59804;-70
2024/03/18 04:05:55;;;;;;;8.20;7.10;;;;;;;1.44;99.11;99210.77;109550;1252;59811;-70
2024/03/18 04:08:22;;;;;;;7.90;6.70;;;;;;;1.38;99.80;99211.12;109539;1252;60165;-71
2024/03/18 04:10:50;;;;;;;9.50;8.30;;;;;;;1.33;99.91;99209.48;109514;1252;59847;-71
2024/03/18 04:13:17;;;;;;;8.00;7.20;;;;;;;1.27;100.00;99210.68;109537;1253;61494;-71
2024/03/18 04:15:44;;;;;;;9.10;7.90;;;;;;;1.23;100.00;99209.59;109493;1252;63790;-71
2024/03/18 04:18:11;;;;;;;8.80;8.00;;;;;;;1.16;100.00;99211.14;109225;1252;60039;-71
2024/03/18 04:20:37;;;;;;;10.10;8.30;;;;;;;1.11;100.00;99211.27;109522;1253;59769;-71
2024/03/18 04:23:05;;;;;;;10.00;9.20;;;;;;;1.08;100.00;99207.66;109230;1252;59966;-72
2024/03/18 04:25:35;;;;;;;8.40;7.60;;;;;;;1.06;100.00;99204.55;109507;1252;59826;-71
2024/03/18 04:28:07;;;;;;;8.90;8.00;;;;;;;1.04;100.00;99204.27;109497;1253;73839;-71
2024/03/18 04:30:36;;;;;;;9.50;8.60;;;;;;;1.03;100.00;99204.83;109532;1253;59773;-71
2024/03/18 04:33:04;;;;;;;10.40;9.20;;;;;;;1.03;100.00;99204.13;109541;1253;60101;-70
2024/03/18 04:35:31;;;;;;;9.70;8.70;;;;;;;1.01;100.00;99201.71;109502;1253;67071;-70
2024/03/18 04:37:57;;;;;;;9.80;8.60;;;;;;;0.99;100.00;99200.71;109551;1252;60083;-70
2024/03/18 04:40:25;;;;;;;11.70;10.40;;;;;;;0.95;100.00;99201.52;109530;1253;59796;-70
2024/03/18 04:42:52;;;;;;;13.80;10.90;;;;;;;0.93;100.00;99206.13;109498;1253;59828;-71
2024/03/18 04:45:20;;;;;;;12.30;10.00;;;;;;;0.92;100.00;99209.98;109508;1252;60145;-70
2024/03/18 04:47:51;;;;;;;12.40;11.10;;;;;;;0.89;100.00;99210.41;109488;1253;66894;-70
2024/03/18 04:50:20;;;;;;;12.30;10.80;;;;;;;0.87;100.00;99216.76;109497;1252;60122;-70
2024/03/18 04:52:47;;;;;;;10.90;9.70;;;;;;;0.87;100.00;99218.85;109483;1253;64126;-70
2024/03/18 04:55:15;;;;;;;11.30;9.90;;;;;;;0.86;100.00;99216.95;109487;1252;59737;-70
2024/03/18 04:57:41;;;;;;;12.30;10.60;;;;;;;0.86;100.00;99215.90;108771;1253;1002973;-70
2024/03/18 05:00:11;;;;;;;13.30;10.70;;;;;;;0.86;100.00;99213.27;109506;1253;66733;-70
2024/03/18 05:02:38;;;;;;;;;;;;;;;0.85;100.00;99214.17;109527;1254;59825;-70
2024/03/18 05:05:06;;;;;;;10.80;9.10;;;;;;;0.84;100.00;99219.09;109478;1253;63973;-70
2024/03/18 05:07:33;;;;;;;10.00;8.90;;;;;;;0.84;100.00;99217.52;109494;1253;59776;-70
2024/03/18 05:09:59;;;;;;;13.10;11.30;;;;;;;0.84;100.00;99220.48;109560;1253;59758;-70
2024/03/18 05:12:26;;;;;;;15.90;12.20;;;;;;;0.86;100.00;99223.42;109501;1253;65396;-70
2024/03/18 05:14:52;;;;;;;16.80;11.70;;;;;;;0.88;100.00;99221.98;109273;1252;60218;-70
2024/03/18 05:17:19;;;;;;;13.30;10.50;;;;;;;0.90;100.00;99220.53;109493;1254;59861;-70
2024/03/18 05:19:45;;;;;;;12.40;11.10;;;;;;;0.93;100.00;99222.22;108680;1254;1002283;-71
2024/03/18 05:22:13;;;;;;;13.30;11.60;;;;;;;0.96;100.00;99220.39;109563;1252;60021;-70
2024/03/18 05:24:43;;;;;;;13.70;11.90;;;;;;;0.98;100.00;99217.90;109261;1253;66752;-70
2024/03/18 05:27:11;;;;;;;11.70;10.00;;;;;;;1.01;100.00;99217.64;109491;1252;60256;-71
2024/03/18 05:29:38;;;;;;;13.80;11.30;;;;;;;1.03;100.00;99221.45;109460;1252;62846;-70
2024/03/18 05:32:12;;;;;;;13.10;11.10;;;;;;;1.04;100.00;99222.81;109520;1253;59816;-71
2024/03/18 05:34:40;;;;;;;13.70;11.40;;;;;;;1.10;100.00;99225.46;109522;1252;59755;-71
2024/03/18 05:37:09;;;;;;;13.20;11.00;;;;;;;1.18;100.00;99221.41;109508;1252;66544;-70
2024/03/18 05:39:37;;;;;;;13.30;9.80;;;;;;;1.30;100.00;99220.41;109509;1253;61202;-70
2024/03/18 05:42:04;;;;;;;9.50;8.50;;;;;;;1.53;100.00;99222.44;109506;1253;63768;-71
2024/03/18 05:44:30;;;;;;;10.30;8.80;;;;;;;1.90;100.00;99222.13;109216;1253;60009;-71
2024/03/18 05:46:58;;;;;;;8.60;7.70;;;;;;;2.20;100.00;99217.42;109521;1253;59793;-71
2024/03/18 05:49:24;;;;;;;8.20;7.30;;;;;;;2.44;99.98;99215.99;109524;1254;65742;-71
2024/03/18 05:51:52;;;;;;;9.40;8.10;;;;;;;2.62;98.86;99218.25;109539;1253;60120;-71
2024/03/18 05:54:18;;;;;;;7.90;7.10;;;;;;;2.75;97.43;99216.45;109516;1252;62838;-71
2024/03/18 05:56:45;;;;;;;8.90;7.60;;;;;;;2.72;95.34;99221.44;109526;1253;59987;-70
2024/03/18 05:59:12;;;;;;;8.40;7.60;;;;;;;2.70;94.92;99223.98;109485;1252;59791;-71
2024/03/18 06:01:39;;;;;;;8.70;7.70;;;;;;;2.60;94.17;99229.54;109546;1253;65299;-71
2024/03/18 06:04:06;;;;;;;9.40;7.60;;;;;;;2.32;94.49;99237.56;109538;1252;59852;-71
2024/03/18 06:06:33;;;;;;;8.70;7.80;;;;;;;2.15;95.00;99237.52;109502;1253;64213;-71
2024/03/18 06:09:00;;;;;;;8.30;7.60;;;;;;;2.06;95.50;99238.51;109508;1253;60218;-71
2024/03/18 06:11:28;;;;;;;7.50;6.80;;;;;;;2.00;95.91;99237.08;109582;1251;59822;-71
2024/03/18 06:13:54;;;;;;;8.70;7.90;;;;;;;1.95;95.70;99240.92;109548;1251;66970;-71
2024/03/18 06:16:21;;;;;;;8.40;7.10;;;;;;;1.88;96.01;99242.51;109518;1251;59891;-70
2024/03/18 06:18:54;;;;;;;8.70;8.00;;;;;;;1.85;96.37;99239.08;109515;1251;64160;-70
2024/03/18 06:21:27;;;;;;;7.50;6.80;;;;;;;1.84;95.96;99237.02;109268;1251;59798;-70
2024/03/18 06:23:59;;;;;;;7.30;6.60;;;;;;;1.79;95.68;99236.47;109506;1251;59810;-69
2024/03/18 06:26:25;;;;;;;8.40;7.60;;;;;;;1.74;95.71;99236.75;109529;1251;66843;-70
2024/03/18 06:28:52;;;;;;;8.60;7.20;;;;;;;1.75;95.92;99230.08;109531;1251;59775;-70
2024/03/18 06:31:19;;;;;;;8.80;7.90;;;;;;;1.73;95.86;99232.26;109506;1255;62821;-70
2024/03/18 06:33:47;;;;;;;8.20;7.50;;;;;;;1.69;96.20;99230.23;109494;1252;59771;-70
2024/03/18 06:36:14;;;;;;;7.90;7.10;;;;;;;1.68;95.91;99233.56;109495;1252;59821;-71
2024/03/18 06:38:41;;;;;;;7.80;7.00;;;;;;;1.65;95.47;99232.44;109450;1255;59709;-71
2024/03/18 06:41:11;;;;;;;8.40;7.00;;;;;;;1.62;96.23;99231.83;109508;1253;60216;-70
2024/03/18 06:43:38;;;;;;;9.40;7.20;;;;;;;1.65;96.93;99230.69;109505;1254;62636;-70
2024/03/18 06:46:10;;;;;;;8.70;7.70;;;;;;;1.67;96.46;99227.13;109492;1253;60083;-71
2024/03/18 06:48:38;;;;;;;8.80;6.90;;;;;;;1.70;96.66;99228.11;109535;1252;59763;-71
2024/03/18 06:51:13;;;;;;;10.00;8.90;;;;;;;1.73;97.02;99222.08;109464;1253;67035;-71
2024/03/18 06:53:41;;;;;;;10.20;9.20;;;;;;;1.71;96.94;99223.17;109497;1252;60539;-70
2024/03/18 06:56:11;;;;;;;11.80;10.30;;;;;;;1.65;97.38;99225.27;109507;1254;63755;-70
2024/03/18 06:58:38;;;;;;;10.80;9.60;;;;;;;1.58;97.76;99229.82;109527;1253;59768;-71
2024/03/18 07:01:05;;;;;;;6.50;5.20;;;;;;;1.50;96.27;99235.30;109542;1254;59845;-71
2024/03/18 07:03:32;;;;;;;7.50;5.50;;;;;;;1.42;94.85;99234.63;109162;1254;65314;-71
2024/03/18 07:06:01;;;;;;;6.30;4.80;;;;;;;1.37;94.08;99236.18;109534;1254;59898;-71
2024/03/18 07:08:28;;;;;;;5.10;3.80;;;;;;;1.35;93.35;99235.18;109469;1252;72276;-70
2024/03/18 07:10:55;;;;;;;4.60;3.10;;;;;;;1.33;92.25;99236.09;109446;1252;59740;-70
2024/03/18 07:13:21;;;;;;;4.70;4.30;;;;;;;1.30;91.89;99233.71;109532;1253;60076;-72
2024/03/18 07:15:48;;;;;;;5.10;3.40;;;;;;;1.30;91.94;99236.68;109463;1253;59797;-70
2024/03/18 07:18:14;;;;;;;5.50;4.70;;;;;;;1.34;91.72;99236.42;109266;1253;59919;-70
2024/03/18 07:20:40;;;;;;;4.40;3.90;;;;;;;1.39;91.71;99239.10;109503;1253;59781;-71
2024/03/18 07:23:08;;;;;;;4.20;3.80;;;;;;;1.43;91.09;99241.44;109532;1253;59771;-71
2024/03/18 07:25:34;;;;;;;6.30;5.10;;;;;;;1.51;91.53;99238.59;109271;1253;59897;-71
2024/03/18 07:28:00;;;;;;;4.00;3.40;;;;;;;1.66;91.15;99242.41;109435;1253;59766;-71
2024/03/18 07:30:27;;;;;;;5.10;3.20;;;;;;;1.78;89.58;99243.13;109538;1253;59810;-70
2024/03/18 07:32:54;;;;;;;5.30;3.20;;;;;;;1.90;88.25;99245.95;109467;1253;59761;-70
2024/03/18 07:35:20;;;;;;;3.40;3.00;;;;;;;2.03;88.16;99245.60;109499;1252;59749;-71
2024/03/18 07:37:47;;;;;;;3.30;2.90;;;;;;;2.14;87.22;99245.80;109521;1253;59805;-71
2024/03/18 07:40:13;;;;;;;3.80;2.90;;;;;;;2.22;86.35;99242.24;109315;1254;59877;-71
2024/03/18 07:42:40;;;;;;;3.30;3.00;;;;;;;2.30;86.56;99240.44;109528;1253;60021;-70
2024/03/18 07:45:08;;;;;;;4.00;2.90;;;;;;;2.42;86.03;99239.02;109470;1254;62656;-70
2024/03/18 07:47:35;;;;;;;2.70;2.50;;;;;;;2.53;85.22;99237.13;109484;1252;59816;-71
2024/03/18 07:50:06;;;;;;;7.40;2.50;;;;;;;2.65;84.87;99235.53;109465;1254;59793;-71
2024/03/18 07:52:32;;;;;;;3.70;3.40;;;;;;;2.77;84.57;99230.77;109517;1253;66531;-70
2024/03/18 07:55:00;;;;;;;4.60;3.70;;;;;;;2.90;83.81;99229.30;109459;1253;59827;-70
2024/03/18 07:57:28;;;;;;;3.40;3.10;;;;;;;3.02;83.21;99229.96;109484;1254;63977;-73
2024/03/18 07:59:54;;;;;;;4.40;3.60;;;;;;;3.14;81.95;99229.06;109469;1253;59871;-71
2024/03/18 08:02:21;;;;;;;6.30;3.30;;;;;;;3.31;81.90;99231.13;109418;1253;59656;-70
2024/03/18 08:04:49;;;;;;;3.30;2.70;;;;;;;3.49;79.39;99226.99;109531;1253;60033;-71
2024/03/18 08:07:15;;;;;;;3.80;3.20;;;;;;;3.65;78.97;99223.27;109469;1253;59913;-71
2024/03/18 08:09:41;;;;;;;3.40;3.10;;;;;;;3.78;78.18;99223.18;109483;1253;59835;-71
2024/03/18 08:12:08;;;;;;;3.20;2.90;;;;;;;3.88;78.20;99220.70;109450;1253;60095;-70
2024/03/18 08:14:38;;;;;;;4.30;3.60;;;;;;;3.97;78.28;99218.98;109493;1254;59901;-70
2024/03/18 08:17:04;;;;;;;4.90;4.00;;;;;;;3.98;75.93;99218.08;109530;1252;66820;-72
2024/03/18 08:19:31;;;;;;;4.20;3.50;;;;;;;3.90;76.06;99223.81;109537;1253;60050;-70
2024/03/18 08:21:58;;;;;;;4.20;3.80;;;;;;;3.90;77.02;99220.45;109501;1252;59886;-70
2024/03/18 08:24:24;;;;;;;5.10;3.20;;;;;;;3.94;76.82;99223.13;109446;1252;59759;-70
2024/03/18 08:26:54;;;;;;;4.00;3.60;;;;;;;3.94;76.86;99215.36;109485;1252;59825;-71
2024/03/18 08:29:21;;;;;;;4.10;3.60;;;;;;;3.94;76.11;99215.36;109492;1254;75189;-71
2024/03/18 08:31:47;;;;;;;5.70;4.40;;;;;;;3.98;76.27;99208.90;109523;1253;60394;-70
2024/03/18 08:34:14;;;;;;;4.00;3.40;;;;;;;4.02;75.47;99209.13;108771;1254;1002679;-71
2024/03/18 08:36:40;;;;;;;4.00;3.50;;;;;;;4.00;75.28;99207.42;109483;1253;60185;-69
2024/03/18 08:39:06;;;;;;;3.50;2.90;;;;;;;3.94;74.07;99206.05;109265;1252;60047;-71
2024/03/18 08:41:32;;;;;;;3.00;2.70;;;;;;;3.84;73.65;99205.92;109477;1252;60069;-71
2024/03/18 08:43:59;;;;;;;4.30;3.40;;;;;;;3.82;73.95;99205.80;109444;1253;59801;-71
2024/03/18 08:46:25;;;;;;;3.50;3.00;;;;;;;3.91;74.11;99208.13;109422;1253;59848;-71
2024/03/18 08:48:52;;;;;;;4.00;3.00;;;;;;;3.95;74.00;99208.64;109488;1253;59791;-70
2024/03/18 08:51:18;;;;;;;3.30;2.80;;;;;;;4.03;73.71;99210.14;109476;1252;59899;-71
2024/03/18 08:53:44;;;;;;;3.20;2.80;;;;;;;4.11;73.30;99209.86;109297;1253;59908;-70
2024/03/18 08:56:11;;;;;;;3.60;2.80;;;;;;;4.09;71.62;99200.42;109489;1252;59800;-70
2024/03/18 08:58:37;;;;;;;3.50;3.10;;;;;;;4.13;72.44;99201.51;109452;1252;59836;-71
2024/03/18 09:01:07;;;;;;;5.00;3.40;;;;;;;4.30;73.36;99199.64;109440;1254;59779;-71
2024/03/18 09:03:33;;;;;;;2.90;2.70;;;;;;;4.48;72.30;99198.06;109511;1253;59685;-71
2024/03/18 09:06:00;;;;;;;4.60;3.80;;;;;;;4.55;71.91;99196.05;109531;1253;60445;-71
2024/03/18 09:08:26;;;;;;;3.60;3.30;;;;;;;4.58;71.35;99197.30;109463;1253;59768;-71
2024/03/18 09:10:53;;;;;;;3.50;3.20;;;;;;;4.65;71.08;99195.65;109421;1252;59970;-71
2024/03/18 09:13:19;;;;;;;5.10;3.40;;;;;;;4.66;70.32;99195.77;109486;1252;59759;-71
2024/03/18 09:15:46;;;;;;;3.40;2.80;;;;;;;4.66;70.36;99194.71;109453;1253;59792;-71
2024/03/18 09:18:12;;;;;;;4.00;3.40;;;;;;;4.70;69.73;99201.25;109455;1253;65583;-71
2024/03/18 09:20:39;;;;;;;4.40;3.00;;;;;;;4.68;68.93;99198.51;109476;1253;59831;-71
2024/03/18 09:23:09;;;;;;;4.00;3.60;;;;;;;4.67;68.83;99198.02;109501;1253;63961;-71
2024/03/18 09:25:35;;;;;;;4.70;3.60;;;;;;;4.62;68.63;99195.94;109460;1252;59826;-71
2024/03/18 09:28:02;;;;;;;3.80;3.50;;;;;;;4.61;69.22;99193.52;109530;1254;59774;-71
2024/03/18 09:30:30;;;;;;;4.00;3.10;;;;;;;4.62;69.31;99195.39;109495;1252;66535;-71
2024/03/18 09:32:57;;;;;;;3.20;2.90;;;;;;;4.70;70.01;99194.91;109465;1253;59938;-71
2024/03/18 09:35:23;;;;;;;4.70;3.60;;;;;;;4.82;70.96;99193.89;109288;1253;59856;-71
2024/03/18 09:37:50;;;;;;;4.30;3.40;;;;;;;4.98;70.53;99197.66;109457;1254;59919;-71
2024/03/18 09:40:17;;;;;;;3.30;2.90;;;;;;;5.00;70.07;99195.60;109474;1252;59873;-71
2024/03/18 09:42:43;;;;;;;4.90;4.10;;;;;;;5.04;70.65;99192.46;109470;1252;66854;-70
2024/03/18 09:45:15;;;;;;;3.70;3.30;;;;;;;5.07;70.52;99193.38;109450;1252;67566;-71
2024/03/18 09:47:43;;;;;;;4.40;3.90;;;;;;;5.13;70.18;99192.11;109332;1252;62878;-70
2024/03/18 09:50:14;;;;;;;4.40;3.90;;;;;;;5.11;69.69;99190.63;109411;1254;59786;-71
2024/03/18 09:52:42;;;;;;;6.30;4.00;;;;;;;5.13;69.72;99188.76;109476;1252;59801;-69
2024/03/18 09:55:20;;;;;;;4.60;4.00;;;;;;;5.09;69.48;99189.09;109488;1252;66574;-70
2024/03/18 09:57:48;;;;;;;4.10;3.70;;;;;;;4.97;69.00;99188.00;109430;1253;60123;-70
2024/03/18 10:00:19;;;;;;;6.40;4.80;;;;;;;4.94;69.38;99185.32;109284;1253;63785;-72
2024/03/18 10:02:46;;;;;;;4.30;3.90;;;;;;;5.03;69.27;99186.00;109389;1252;149037;-71
2024/03/18 10:05:15;;;;;;;4.40;4.00;;;;;;;5.04;68.34;99185.08;109415;1252;59733;-71
2024/03/18 10:07:44;;;;;;;4.40;4.00;;;;;;;5.01;68.17;99183.08;109482;1252;66044;-71
2024/03/18 10:10:15;;;;;;;11.00;6.60;;;;;;;4.99;67.95;99180.73;109461;1252;59836;-71
2024/03/18 10:12:42;;;;;;;4.70;3.70;;;;;;;5.03;67.80;99179.83;109491;1252;62552;-71
2024/03/18 10:15:11;;;;;;;6.10;4.00;;;;;;;5.02;67.22;99178.10;109459;1252;59860;-71
2024/03/18 10:17:39;;;;;;;4.30;3.80;;;;;;;5.01;67.70;99175.36;109476;1252;60214;-72
2024/03/18 10:20:18;;;;;;;5.00;4.50;;;;;;;4.99;67.46;99175.61;109491;1252;65689;-71
2024/03/18 10:22:47;;;;;;;5.30;4.60;;;;;;;5.00;67.73;99173.59;109447;1252;59874;-71
2024/03/18 10:25:20;;;;;;;5.30;4.80;;;;;;;5.09;67.57;99170.59;109443;1253;64111;-72
2024/03/18 10:27:49;;;;;;;5.30;4.50;;;;;;;5.21;67.86;99170.48;109457;1252;59957;-71
2024/03/18 10:30:16;;;;;;;4.60;4.10;;;;;;;5.36;68.54;99164.54;109493;1252;59863;-71
2024/03/18 10:32:44;;;;;;;5.90;5.00;;;;;;;5.58;69.06;99161.27;109315;1253;65593;-71
2024/03/18 10:35:17;;;;;;;5.60;4.20;;;;;;;5.75;68.72;99154.36;109483;1252;60581;-72
2024/03/18 10:37:51;;;;;;;4.70;4.30;;;;;;;5.80;67.20;99156.80;109458;1252;62815;-71
2024/03/18 10:40:30;;;;;;;4.70;4.30;;;;;;;5.74;67.74;99155.30;109456;1252;59854;-71
2024/03/18 10:43:02;;;;;;;5.70;4.20;;;;;;;5.72;66.03;99155.02;109497;1252;59763;-71
2024/03/18 10:45:31;;;;;;;5.20;4.60;;;;;;;5.54;65.84;99157.60;109480;1252;66907;-71
2024/03/18 10:48:10;;;;;;;5.30;4.20;;;;;;;5.45;66.09;99159.02;109437;1253;60450;-71
2024/03/18 10:50:37;;;;;;;5.50;4.90;;;;;;;5.46;66.56;99157.23;109475;1252;64215;-71
2024/03/18 10:53:03;;;;;;;8.00;5.90;;;;;;;5.47;66.58;99155.59;109307;1251;59845;-72
2024/03/18 10:55:32;;;;;;;6.10;5.50;;;;;;;5.51;66.67;99154.55;109503;1252;59806;-70
2024/03/18 10:58:01;;;;;;;7.30;6.60;;;;;;;5.55;66.74;99151.72;109502;1252;65857;-70
2024/03/18 11:00:28;;;;;;;5.70;5.10;;;;;;;5.52;65.88;99155.01;109498;1252;59942;-72
2024/03/18 11:02:59;;;;;;;8.90;5.70;;;;;;;5.41;65.55;99153.41;109423;1252;65016;-70
2024/03/18 11:05:31;;;;;;;6.30;5.70;;;;;;;5.35;65.88;99147.13;109445;1252;59742;-71
2024/03/18 11:08:03;;;;;;;7.90;6.40;;;;;;;5.35;65.91;99148.18;109471;1252;59787;-71
2024/03/18 11:10:30;;;;;;;7.30;6.40;;;;;;;5.36;66.26;99145.86;109477;1252;66823;-72
2024/03/18 11:13:11;;;;;;;7.10;6.40;;;;;;;5.43;66.63;99142.22;109537;1252;60041;-70
2024/03/18 11:15:38;;;;;;;5.60;5.10;;;;;;;5.54;66.48;99142.42;109337;1252;63193;-71
2024/03/18 11:18:06;;;;;;;6.20;5.40;;;;;;;5.58;65.75;99142.61;109494;1252;59911;-70
2024/03/18 11:20:46;;;;;;;6.70;6.00;;;;;;;5.57;65.19;99140.91;109479;1252;59719;-70
2024/03/18 11:23:33;;;;;;;5.40;4.90;;;;;;;5.53;64.69;99141.79;109470;1252;65567;-70
2024/03/18 11:26:08;;;;;;;4.60;4.10;;;;;;;5.51;64.76;99137.11;109462;1252;59826;-70
2024/03/18 11:28:42;;;;;;;6.10;4.40;;;;;;;5.58;64.86;99138.02;109489;1252;63459;-71
2024/03/18 11:31:10;;;;;;;5.40;4.90;;;;;;;5.58;64.17;99135.23;109455;1252;59797;-73
2024/03/18 11:33:38;;;;;;;11.60;4.70;;;;;;;5.50;64.38;99132.39;109508;1252;59845;-72